Hooper Bay Airport

About
Name: Hooper Bay Airport
Identifier:  HPB/PAHP
Owner:  State of Alaska DOT&PF - Central Region
Public/Private:  Public
Local Time:  18. Aug 05:43 AKDT
Description: Hooper Bay Airport is a state-owned public-use airport two miles southwest of Hooper Bay, Alaska.
Source: Wikipedia
Location
Runways
Identifier Length (m/ft) Surface
13/31 3,300/3,300 Asphalt/Gravel
Flights per Day
12 flights
Distance: 65km (40mi)
Punctuality
87% (1 flights per day delayed)
Delay Average: 25 minutes
Current Weather
 12 C (Humidity: 81%)
  10kt (18km/h / 11mph) from 40°
  16km (10 mi.)
 
 METAR PAHP 181256Z AUTO 04010KT 10SM CLR 12/09 A3047 RMK AO2 SLP357 T01170089 PNO $

Current Flights

Departures
Number Departure To Airline
Arrivals
Number Arrival From Airline

Current Delays

Departures
N/A
Arrivals
N/A

Destinations

Top Destinations
Airport Flights
per week
Seats
per week
  Bethel (BET) 3 - 0 0
  St. Mary's (KSM) 0 8 0 1

Airlines & Planes

Top Airlines
Airline Flights
per Day
Seats
per Day
Ravn Alaska 0 -
Ravn Alaska 0 -
  Era Alaska 0 1
Top Plane Types
Model Flights Seats
Cessna C208 0.5/day - 0
Bombardier Dash 8-100 0.0/day 1/day 1.2333333333333334